createdAt,value
2023-01-07T00:00:20.466Z,30.48
2023-01-07T00:02:42.657Z,32.95
2023-01-07T00:04:44.394Z,32.15
2023-01-07T00:06:49.070Z,31.30
2023-01-07T00:08:51.605Z,32.10
2023-01-07T00:10:53.242Z,33.63
2023-01-07T00:12:55.246Z,32.78
2023-01-07T00:14:56.971Z,32.88
2023-01-07T00:16:58.692Z,34.17
2023-01-07T00:19:01.605Z,34.73
2023-01-07T00:21:04.794Z,34.22
2023-01-07T00:23:06.449Z,33.85
2023-01-07T00:25:08.736Z,36.80
2023-01-07T00:27:10.457Z,34.70
2023-01-07T00:29:12.923Z,34.97
2023-01-07T00:31:16.556Z,34.37
2023-01-07T00:33:20.096Z,34.47
2023-01-07T00:35:23.491Z,33.67
2023-01-07T00:37:43.762Z,34.08
2023-01-07T00:39:46.075Z,34.65
2023-01-07T00:42:07.089Z,34.10
2023-01-07T00:44:08.907Z,35.63
2023-01-07T00:46:12.637Z,35.03
2023-01-07T00:48:14.604Z,34.97
2023-01-07T00:50:16.392Z,34.80
2023-01-07T00:52:18.451Z,37.38
2023-01-07T00:54:20.177Z,36.60
2023-01-07T00:56:22.111Z,35.30
2023-01-07T00:58:25.333Z,38.75
2023-01-07T01:00:27.164Z,38.08
2023-01-07T01:02:28.921Z,38.83
2023-01-07T01:04:31.158Z,40.50
2023-01-07T01:06:32.884Z,39.28
2023-01-07T01:08:34.606Z,38.75
2023-01-07T01:10:36.672Z,40.13
2023-01-07T01:12:38.569Z,39.17
2023-01-07T01:14:40.217Z,38.70
2023-01-07T01:16:42.394Z,41.93
2023-01-07T01:18:44.560Z,40.83
2023-01-07T01:20:46.264Z,39.10
2023-01-07T01:22:48.283Z,43.38
2023-01-07T01:24:50.444Z,40.08
2023-01-07T01:26:52.254Z,43.28
2023-01-07T01:28:54.231Z,40.80
2023-01-07T01:30:55.975Z,39.42
2023-01-07T01:32:57.744Z,40.03
2023-01-07T01:34:59.787Z,48.53
2023-01-07T01:37:01.517Z,42.17
2023-01-07T01:39:03.316Z,39.28
2023-01-07T01:41:06.005Z,39.30
2023-01-07T01:43:26.299Z,41.45
2023-01-07T01:45:28.440Z,38.17
2023-01-07T01:47:46.926Z,39.17
2023-01-07T01:49:54.190Z,40.00
2023-01-07T01:51:58.551Z,40.40
2023-01-07T01:54:02.864Z,42.10
2023-01-07T01:56:07.661Z,44.25
2023-01-07T01:58:12.159Z,42.38
2023-01-07T02:00:16.608Z,40.45
2023-01-07T02:02:21.844Z,38.78
2023-01-07T02:04:25.336Z,38.58
2023-01-07T02:06:29.717Z,52.47
2023-01-07T02:08:31.967Z,42.13
2023-01-07T02:10:33.738Z,41.30
2023-01-07T02:12:42.985Z,47.53
2023-01-07T02:14:59.308Z,45.28
2023-01-07T02:17:03.783Z,58.20
2023-01-07T02:19:17.928Z,51.15
2023-01-07T02:21:31.551Z,57.20
2023-01-07T02:23:51.937Z,42.30
2023-01-07T02:25:56.720Z,43.03
2023-01-07T02:28:04.220Z,49.10
2023-01-07T02:30:22.659Z,42.72
2023-01-07T02:32:27.467Z,41.10
2023-01-07T02:34:38.067Z,44.95
2023-01-07T02:36:45.707Z,53.35
2023-01-07T02:39:06.569Z,45.33
2023-01-07T02:41:08.195Z,45.33
2023-01-07T02:43:13.010Z,56.40
2023-01-07T02:45:20.764Z,52.05
2023-01-07T02:47:28.605Z,49.03
2023-01-07T02:49:30.335Z,42.58
2023-01-07T02:51:36.757Z,43.88
2023-01-07T02:53:39.166Z,47.25
2023-01-07T02:56:04.347Z,41.88
2023-01-07T02:58:21.372Z,48.15
2023-01-07T03:00:23.153Z,41.88
2023-01-07T03:02:44.038Z,40.70
2023-01-07T03:04:46.092Z,40.50
2023-01-07T03:07:17.281Z,49.70
2023-01-07T03:09:24.030Z,42.88
2023-01-07T03:11:28.559Z,38.85
2023-01-07T03:13:37.009Z,43.15
2023-01-07T03:15:57.216Z,45.78
2023-01-07T03:18:04.843Z,39.92
2023-01-07T03:20:07.948Z,39.35
2023-01-07T03:22:10.104Z,47.80
2023-01-07T03:24:12.411Z,47.00
2023-01-07T03:26:15.765Z,44.30
2023-01-07T03:28:19.244Z,40.40
2023-01-07T03:30:22.181Z,40.30
2023-01-07T03:32:25.804Z,40.13
2023-01-07T03:34:28.348Z,41.97
2023-01-07T03:36:33.135Z,41.28
2023-01-07T03:38:36.007Z,39.33
2023-01-07T03:40:38.102Z,41.33
2023-01-07T03:42:41.591Z,40.53
2023-01-07T03:44:43.314Z,38.17
2023-01-07T03:46:45.014Z,39.83
2023-01-07T03:48:47.053Z,38.67
2023-01-07T03:50:48.847Z,38.33
2023-01-07T03:52:53.615Z,41.63
2023-01-07T03:54:55.299Z,40.22
2023-01-07T03:56:57.122Z,39.97
2023-01-07T03:58:59.212Z,38.53
2023-01-07T04:01:01.030Z,39.35
2023-01-07T04:03:02.932Z,37.67
2023-01-07T04:05:05.179Z,37.22
2023-01-07T04:07:06.887Z,38.38
2023-01-07T04:09:08.681Z,38.72
2023-01-07T04:11:10.958Z,39.70
2023-01-07T04:13:12.676Z,38.05
2023-01-07T04:15:14.386Z,37.75
2023-01-07T04:17:16.407Z,36.90
2023-01-07T04:19:18.195Z,38.97
2023-01-07T04:21:19.958Z,39.58
2023-01-07T04:23:21.941Z,39.83
2023-01-07T04:25:23.600Z,38.30
2023-01-07T04:27:25.398Z,37.10
2023-01-07T04:29:27.548Z,36.28
2023-01-07T04:31:29.235Z,37.95
2023-01-07T04:33:30.964Z,37.65
2023-01-07T04:35:33.421Z,37.00
2023-01-07T04:37:35.082Z,37.45
2023-01-07T04:39:36.795Z,37.40
2023-01-07T04:41:39.009Z,37.83
2023-01-07T04:43:40.747Z,39.28
2023-01-07T04:45:42.414Z,39.03
2023-01-07T04:47:44.450Z,39.10
2023-01-07T04:49:46.120Z,38.63
2023-01-07T04:51:47.836Z,37.90
2023-01-07T04:53:49.874Z,37.20
2023-01-07T04:55:52.936Z,38.47
2023-01-07T04:57:54.767Z,40.90
2023-01-07T04:59:56.756Z,48.50
2023-01-07T05:01:58.507Z,43.65
2023-01-07T05:04:00.327Z,41.60
2023-01-07T05:06:02.733Z,40.23
2023-01-07T05:08:04.551Z,39.05
2023-01-07T05:10:06.535Z,38.15
2023-01-07T05:12:08.588Z,39.70
2023-01-07T05:14:11.311Z,39.13
2023-01-07T05:16:13.014Z,39.10
2023-01-07T05:18:15.087Z,39.53
2023-01-07T05:20:16.803Z,39.95
2023-01-07T05:22:18.880Z,41.38
2023-01-07T05:24:20.880Z,41.05
2023-01-07T05:26:22.532Z,39.97
2023-01-07T05:28:24.263Z,40.40
2023-01-07T05:30:26.268Z,39.87
2023-01-07T05:32:27.905Z,41.28
2023-01-07T05:34:29.581Z,40.95
2023-01-07T05:36:31.590Z,42.05
2023-01-07T05:38:33.355Z,39.95
2023-01-07T05:40:35.063Z,39.63
2023-01-07T05:42:37.094Z,38.03
2023-01-07T05:44:38.787Z,38.15
2023-01-07T05:46:40.680Z,39.63
2023-01-07T05:48:42.778Z,39.93
2023-01-07T05:50:44.472Z,37.53
2023-01-07T05:52:46.236Z,36.85
2023-01-07T05:54:48.301Z,38.85
2023-01-07T05:56:50.007Z,37.53
2023-01-07T05:58:51.927Z,37.13
2023-01-07T06:00:54.236Z,37.42
2023-01-07T06:02:55.975Z,36.03
2023-01-07T06:04:57.826Z,35.83
2023-01-07T06:06:59.989Z,33.83
2023-01-07T06:09:01.667Z,33.65
2023-01-07T06:11:03.468Z,31.88
2023-01-07T06:13:05.492Z,32.63
2023-01-07T06:15:07.602Z,32.40
2023-01-07T06:17:09.822Z,32.77
2023-01-07T06:19:11.914Z,31.92
2023-01-07T06:21:16.194Z,31.98
2023-01-07T06:23:17.897Z,32.60
2023-01-07T06:25:19.932Z,32.60
2023-01-07T06:27:21.709Z,32.67
2023-01-07T06:29:25.837Z,31.15
2023-01-07T06:31:27.945Z,30.57
2023-01-07T06:33:30.019Z,30.50
2023-01-07T06:37:35.031Z,28.80
2023-01-07T06:39:36.707Z,29.15
2023-01-07T06:41:38.495Z,28.85
2023-01-07T06:43:40.665Z,27.27
2023-01-07T06:45:42.483Z,29.63
2023-01-07T06:47:45.592Z,27.67
2023-01-07T06:49:47.642Z,28.48
2023-01-07T06:51:49.329Z,27.90
2023-01-07T06:53:51.096Z,28.88
2023-01-07T06:55:53.159Z,27.00
2023-01-07T06:57:54.825Z,29.63
2023-01-07T06:59:56.483Z,28.88
2023-01-07T07:01:58.722Z,27.90
2023-01-07T07:04:00.547Z,27.92
2023-01-07T07:06:02.603Z,28.67
2023-01-07T07:08:07.776Z,29.17
2023-01-07T07:10:09.713Z,27.88
2023-01-07T07:12:11.814Z,28.63
2023-01-07T07:14:13.905Z,27.83
2023-01-07T07:16:15.802Z,28.02
2023-01-07T07:18:18.250Z,27.83
2023-01-07T07:20:20.440Z,27.42
2023-01-07T07:22:22.277Z,29.63
2023-01-07T07:24:24.173Z,28.67
2023-01-07T07:26:26.189Z,29.27
2023-01-07T07:28:27.906Z,27.60
2023-01-07T07:30:47.110Z,28.30
2023-01-07T07:32:49.972Z,27.50
2023-01-07T07:34:52.009Z,29.45
2023-01-07T07:36:53.716Z,27.83
2023-01-07T07:38:55.884Z,28.65
2023-01-07T07:40:57.979Z,26.63
2023-01-07T07:43:11.821Z,28.98
2023-01-07T07:45:16.282Z,27.50
2023-01-07T07:47:18.258Z,27.80
2023-01-07T07:49:20.060Z,27.88
2023-01-07T07:51:22.530Z,28.08
2023-01-07T07:53:24.384Z,28.35
2023-01-07T07:55:26.546Z,29.08
2023-01-07T07:57:28.904Z,29.95
2023-01-07T07:59:30.805Z,29.95
2023-01-07T08:01:33.922Z,28.58
2023-01-07T08:03:36.834Z,30.77
2023-01-07T08:05:45.386Z,30.45
2023-01-07T08:07:47.550Z,29.35
2023-01-07T08:09:49.193Z,29.35
2023-01-07T08:11:50.943Z,29.80
2023-01-07T08:13:53.239Z,28.60
2023-01-07T08:15:54.948Z,29.42
2023-01-07T08:18:04.313Z,29.90
2023-01-07T08:20:07.604Z,31.17
2023-01-07T08:22:09.360Z,29.00
2023-01-07T08:24:11.464Z,29.77
2023-01-07T08:26:13.483Z,29.48
2023-01-07T08:28:15.528Z,29.00
2023-01-07T08:30:17.291Z,27.67
2023-01-07T08:32:19.202Z,29.08
2023-01-07T08:34:21.229Z,29.67
2023-01-07T08:36:23.689Z,29.42
2023-01-07T08:38:27.508Z,31.15
2023-01-07T08:40:29.667Z,30.83
2023-01-07T08:42:31.437Z,29.05
2023-01-07T08:44:34.727Z,30.63
2023-01-07T08:46:36.970Z,31.08
2023-01-07T08:48:40.248Z,30.75
2023-01-07T08:50:41.952Z,31.25
2023-01-07T08:52:47.425Z,30.90
2023-01-07T08:54:49.132Z,30.67
2023-01-07T08:56:50.911Z,29.70
2023-01-07T08:58:52.953Z,37.20
2023-01-07T09:00:54.862Z,28.52
2023-01-07T09:02:56.620Z,28.60
2023-01-07T09:04:58.719Z,29.27
2023-01-07T09:07:00.438Z,28.08
2023-01-07T09:09:02.479Z,28.70
2023-01-07T09:11:04.173Z,30.17
2023-01-07T09:13:05.837Z,29.52
2023-01-07T09:15:08.495Z,28.55
2023-01-07T09:17:10.202Z,28.92
2023-01-07T09:19:12.020Z,27.95
2023-01-07T09:21:14.174Z,28.33
2023-01-07T09:23:15.907Z,27.65
2023-01-07T09:25:17.657Z,29.27
2023-01-07T09:27:19.693Z,28.80
2023-01-07T09:29:21.385Z,27.65
2023-01-07T09:31:24.189Z,29.05
2023-01-07T09:33:26.326Z,28.17
2023-01-07T09:35:27.990Z,27.23
2023-01-07T09:37:29.726Z,27.33
2023-01-07T09:39:32.054Z,27.17
2023-01-07T09:41:33.757Z,27.70
2023-01-07T09:43:59.949Z,27.15
2023-01-07T09:46:06.115Z,28.13
2023-01-07T09:48:22.168Z,25.67
2023-01-07T09:50:26.971Z,28.33
2023-01-07T09:52:33.505Z,29.50
2023-01-07T09:54:36.707Z,29.25
2023-01-07T09:56:39.935Z,28.55
2023-01-07T09:58:43.478Z,26.73
2023-01-07T10:01:08.394Z,23.77
2023-01-07T10:03:22.487Z,23.42
2023-01-07T10:05:43.588Z,23.58
2023-01-07T10:08:29.435Z,25.63
2023-01-07T10:10:27.719Z,25.98
2023-01-07T10:12:29.362Z,25.27
2023-01-07T10:14:34.115Z,26.05
2023-01-07T10:16:43.663Z,24.92
2023-01-07T10:19:03.699Z,25.73
2023-01-07T10:21:05.593Z,25.95
2023-01-07T10:23:10.233Z,25.50
2023-01-07T10:25:16.527Z,25.50
2023-01-07T10:27:24.881Z,24.77
2023-01-07T10:29:30.806Z,27.10
2023-01-07T10:31:33.026Z,27.70
2023-01-07T10:33:35.021Z,25.13
2023-01-07T10:35:39.637Z,24.70
2023-01-07T10:37:42.377Z,24.55
2023-01-07T10:39:50.797Z,24.80
2023-01-07T10:42:02.612Z,24.67
2023-01-07T10:44:21.376Z,26.45
2023-01-07T10:46:48.600Z,26.08
2023-01-07T10:49:04.708Z,25.48
2023-01-07T10:51:14.394Z,24.23
2023-01-07T10:53:17.395Z,25.63
2023-01-07T10:55:39.502Z,25.65
2023-01-07T10:57:41.828Z,22.90
2023-01-07T10:59:47.640Z,23.42
2023-01-07T11:01:51.959Z,22.42
2023-01-07T11:03:56.158Z,24.50
2023-01-07T11:05:59.914Z,25.60
2023-01-07T11:08:03.317Z,24.38
2023-01-07T11:10:05.929Z,24.00
2023-01-07T11:12:13.711Z,26.05
2023-01-07T11:14:27.406Z,24.58
2023-01-07T11:16:31.919Z,24.10
2023-01-07T11:18:33.651Z,34.53
2023-01-07T11:20:43.216Z,25.70
2023-01-07T11:22:45.314Z,25.05
2023-01-07T11:24:47.026Z,23.73
2023-01-07T11:26:50.267Z,23.83
2023-01-07T11:28:56.611Z,24.45
2023-01-07T11:30:59.334Z,24.40
2023-01-07T11:35:05.405Z,23.75
2023-01-07T11:37:10.810Z,23.98
2023-01-07T11:39:19.165Z,23.67
2023-01-07T11:41:22.950Z,24.05
2023-01-07T11:43:25.101Z,22.38
2023-01-07T11:45:30.419Z,24.27
2023-01-07T11:47:32.124Z,25.10
2023-01-07T11:49:40.452Z,23.67
2023-01-07T11:51:43.048Z,24.30
2023-01-07T11:53:46.270Z,26.67
2023-01-07T11:55:57.433Z,114.15
2023-01-07T11:58:29.824Z,27.58
2023-01-07T12:00:21.488Z,26.30
2023-01-07T12:02:25.305Z,26.42
2023-01-07T12:04:33.991Z,26.55
2023-01-07T12:06:38.099Z,26.65
2023-01-07T12:08:41.503Z,29.13
2023-01-07T12:10:43.248Z,27.70
2023-01-07T12:12:44.951Z,28.13
2023-01-07T12:14:47.555Z,27.10
2023-01-07T12:16:51.760Z,27.67
2023-01-07T12:18:58.278Z,30.17
2023-01-07T12:21:09.633Z,27.83
2023-01-07T12:23:18.170Z,30.27
2023-01-07T12:25:20.003Z,28.23
2023-01-07T12:27:30.947Z,28.88
2023-01-07T12:29:36.344Z,28.95
2023-01-07T12:31:38.113Z,28.13
2023-01-07T12:33:46.238Z,30.48
2023-01-07T12:35:48.697Z,33.97
2023-01-07T12:37:50.444Z,29.38
2023-01-07T12:39:56.992Z,26.02
2023-01-07T12:42:02.372Z,24.70
2023-01-07T12:44:18.431Z,24.38
2023-01-07T12:46:21.331Z,24.83
2023-01-07T12:48:25.908Z,23.77
2023-01-07T12:50:40.537Z,24.42
2023-01-07T12:52:45.297Z,24.85
2023-01-07T12:54:47.006Z,24.58
2023-01-07T12:56:48.707Z,24.38
2023-01-07T12:58:53.749Z,22.77
2023-01-07T13:01:15.600Z,21.98
2023-01-07T13:03:36.393Z,20.77
2023-01-07T13:05:45.544Z,19.67
2023-01-07T13:07:52.407Z,21.60
2023-01-07T13:09:59.943Z,21.65
2023-01-07T13:12:42.344Z,23.88
2023-01-07T13:14:47.644Z,22.20
2023-01-07T13:16:49.513Z,21.42
2023-01-07T13:18:51.166Z,21.23
2023-01-07T13:21:04.074Z,21.73
2023-01-07T13:23:05.929Z,20.75
2023-01-07T13:25:19.608Z,20.70
2023-01-07T13:27:37.438Z,17.77
2023-01-07T13:29:58.620Z,17.77
2023-01-07T13:32:19.589Z,22.73
2023-01-07T13:34:45.273Z,18.42
2023-01-07T13:36:56.526Z,18.90
2023-01-07T13:39:13.942Z,19.92
2023-01-07T13:41:25.368Z,18.02
2023-01-07T13:43:38.218Z,18.90
2023-01-07T13:45:40.396Z,19.05
2023-01-07T13:47:47.000Z,27.92
2023-01-07T13:49:57.394Z,25.67
2023-01-07T13:52:14.671Z,23.55
2023-01-07T13:54:36.730Z,24.20
2023-01-07T13:56:39.451Z,20.98
2023-01-07T13:58:45.050Z,22.70
2023-01-07T14:01:07.273Z,24.73
2023-01-07T14:03:27.145Z,22.95
2023-01-07T14:05:29.664Z,23.55
2023-01-07T14:07:32.093Z,23.08
2023-01-07T14:09:35.443Z,25.02
2023-01-07T14:13:59.206Z,25.33
2023-01-07T14:16:01.381Z,27.17
2023-01-07T14:18:17.599Z,26.48
2023-01-07T14:20:28.443Z,27.10
2023-01-07T14:22:45.358Z,25.77
2023-01-07T14:24:47.043Z,25.67
2023-01-07T14:26:51.626Z,26.63
2023-01-07T14:28:59.732Z,27.25
2023-01-07T14:31:01.893Z,63.50
2023-01-07T14:33:05.633Z,28.80
2023-01-07T14:35:20.195Z,29.10
2023-01-07T14:37:32.516Z,28.20
2023-01-07T14:39:35.595Z,26.17
2023-01-07T14:41:57.565Z,28.08
2023-01-07T14:44:02.185Z,26.15
2023-01-07T14:46:04.281Z,27.48
2023-01-07T14:48:08.781Z,28.30
2023-01-07T14:50:19.655Z,28.73
2023-01-07T14:52:24.442Z,28.38
2023-01-07T14:54:38.159Z,28.65
2023-01-07T14:56:57.693Z,29.25
2023-01-07T14:59:07.703Z,28.70
2023-01-07T15:01:34.329Z,28.67
2023-01-07T15:03:39.244Z,27.92
2023-01-07T15:05:59.571Z,27.52
2023-01-07T15:08:22.160Z,24.30
2023-01-07T15:10:44.454Z,25.17
2023-01-07T15:13:06.068Z,25.48
2023-01-07T15:15:36.487Z,25.13
2023-01-07T15:17:39.101Z,24.75
2023-01-07T15:19:41.759Z,24.23
2023-01-07T15:22:07.973Z,23.25
2023-01-07T15:24:39.407Z,23.80
2023-01-07T15:27:03.766Z,23.08
2023-01-07T15:29:17.111Z,23.70
2023-01-07T15:31:28.797Z,24.75
2023-01-07T15:33:30.487Z,29.75
2023-01-07T15:35:40.587Z,26.87
2023-01-07T15:37:46.502Z,23.33
2023-01-07T15:39:52.120Z,20.95
2023-01-07T15:41:54.670Z,22.33
2023-01-07T15:43:56.756Z,22.35
2023-01-07T15:45:58.747Z,22.58
2023-01-07T15:48:08.209Z,24.27
2023-01-07T15:50:22.182Z,33.88
2023-01-07T15:52:26.313Z,26.52
2023-01-07T15:54:31.258Z,23.58
2023-01-07T15:56:34.874Z,22.30
2023-01-07T15:58:40.342Z,23.00
2023-01-07T16:00:42.549Z,26.00
2023-01-07T16:02:45.715Z,30.35
2023-01-07T16:06:55.332Z,21.67
2023-01-07T16:08:58.012Z,23.02
2023-01-07T16:11:01.218Z,22.83
2023-01-07T16:13:04.586Z,34.65
2023-01-07T16:15:33.076Z,168.20
2023-01-07T16:17:35.976Z,180.25
2023-01-07T16:19:38.126Z,111.70
2023-01-07T16:21:41.324Z,39.20
2023-01-07T16:23:43.474Z,34.15
2023-01-07T16:25:47.381Z,34.90
2023-01-07T16:27:49.798Z,26.90
2023-01-07T16:29:52.654Z,24.00
2023-01-07T16:31:55.625Z,22.38
2023-01-07T16:33:58.321Z,24.77
2023-01-07T16:36:01.250Z,27.63
2023-01-07T16:38:03.761Z,24.45
2023-01-07T16:40:09.459Z,24.58
2023-01-07T16:42:20.917Z,23.33
2023-01-07T16:44:38.034Z,22.83
2023-01-07T16:46:42.773Z,23.88
2023-01-07T16:48:45.573Z,23.95
2023-01-07T16:50:48.271Z,23.48
2023-01-07T16:52:51.206Z,21.98
2023-01-07T16:54:53.285Z,23.63
2023-01-07T16:56:56.617Z,23.67
2023-01-07T16:58:58.335Z,22.58
2023-01-07T17:01:02.032Z,24.10
2023-01-07T17:03:03.931Z,23.85
2023-01-07T17:05:25.132Z,23.58
2023-01-07T17:07:28.725Z,23.75
2023-01-07T17:09:33.676Z,23.85
2023-01-07T17:11:39.243Z,24.75
2023-01-07T17:13:41.300Z,24.15
2023-01-07T17:15:43.677Z,25.05
2023-01-07T17:17:45.413Z,26.23
2023-01-07T17:20:10.780Z,26.25
2023-01-07T17:22:31.044Z,25.75
2023-01-07T17:24:38.927Z,28.55
2023-01-07T17:26:41.981Z,26.83
2023-01-07T17:28:55.470Z,25.08
2023-01-07T17:30:57.239Z,24.33
2023-01-07T17:32:59.238Z,24.88
2023-01-07T17:35:02.583Z,24.85
2023-01-07T17:39:06.399Z,23.63
2023-01-07T17:41:30.923Z,23.98
2023-01-07T17:43:37.585Z,24.13
2023-01-07T17:45:39.428Z,24.10
2023-01-07T17:47:41.156Z,24.33
2023-01-07T17:49:43.156Z,24.83
2023-01-07T17:51:45.912Z,24.60
2023-01-07T17:53:49.037Z,24.23
2023-01-07T17:55:50.927Z,24.30
2023-01-07T17:57:52.948Z,24.10
2023-01-07T17:59:55.339Z,23.80
2023-01-07T18:01:59.148Z,24.23
2023-01-07T18:04:01.362Z,25.17
2023-01-07T18:06:03.370Z,25.80
2023-01-07T18:08:05.163Z,25.93
2023-01-07T18:10:07.466Z,26.80
2023-01-07T18:12:31.562Z,25.67
2023-01-07T18:14:33.720Z,26.20
2023-01-07T18:16:35.940Z,26.02
2023-01-07T18:18:37.872Z,26.42
2023-01-07T18:20:39.857Z,25.08
2023-01-07T18:22:42.015Z,25.65
2023-01-07T18:24:44.081Z,24.45
2023-01-07T18:26:46.147Z,23.80
2023-01-07T18:28:48.420Z,25.43
2023-01-07T18:30:50.460Z,26.70
2023-01-07T18:32:53.716Z,27.02
2023-01-07T18:34:55.738Z,27.63
2023-01-07T18:36:57.925Z,30.02
2023-01-07T18:38:59.935Z,28.98
2023-01-07T18:41:01.637Z,28.63
2023-01-07T18:43:03.537Z,29.73
2023-01-07T18:45:06.009Z,27.17
2023-01-07T18:47:07.650Z,28.67
2023-01-07T18:49:10.311Z,26.15
2023-01-07T18:51:12.529Z,26.95
2023-01-07T18:53:14.553Z,28.08
2023-01-07T18:55:18.048Z,26.75
2023-01-07T18:57:19.911Z,25.17
2023-01-07T18:59:21.928Z,26.50
2023-01-07T19:01:23.867Z,26.73
2023-01-07T19:03:25.659Z,27.97
2023-01-07T19:05:28.447Z,28.10
2023-01-07T19:07:30.191Z,29.02
2023-01-07T19:09:31.844Z,31.98
2023-01-07T19:11:33.871Z,33.92
2023-01-07T19:13:35.617Z,34.85
2023-01-07T19:15:38.399Z,36.55
2023-01-07T19:17:40.479Z,37.35
2023-01-07T19:19:48.208Z,37.78
2023-01-07T19:21:50.951Z,39.00
2023-01-07T19:23:52.648Z,39.28
2023-01-07T19:26:02.421Z,40.40
2023-01-07T19:28:04.188Z,41.95
2023-01-07T19:30:06.553Z,41.53
2023-01-07T19:32:08.405Z,39.27
2023-01-07T19:34:10.707Z,38.40
2023-01-07T19:36:12.921Z,38.95
2023-01-07T19:38:14.645Z,38.13
2023-01-07T19:40:16.748Z,39.30
2023-01-07T19:42:18.494Z,39.28
2023-01-07T19:44:20.568Z,40.07
2023-01-07T19:46:22.319Z,39.88
2023-01-07T19:48:24.032Z,40.47
2023-01-07T19:50:26.108Z,39.70
2023-01-07T19:52:28.206Z,40.25
2023-01-07T19:54:30.204Z,42.88
2023-01-07T19:56:32.421Z,42.33
2023-01-07T19:58:34.232Z,43.85
2023-01-07T20:00:36.236Z,43.30
2023-01-07T20:02:37.966Z,41.95
2023-01-07T20:04:40.781Z,45.63
2023-01-07T20:06:42.595Z,47.65
2023-01-07T20:08:45.179Z,49.53
2023-01-07T20:10:54.853Z,47.10
2023-01-07T20:12:56.559Z,47.60
2023-01-07T20:14:58.577Z,49.97
2023-01-07T20:17:00.405Z,50.05
2023-01-07T20:19:02.853Z,48.22
2023-01-07T20:21:04.643Z,50.15
2023-01-07T20:23:06.387Z,50.08
2023-01-07T20:25:09.231Z,47.80
2023-01-07T20:27:11.020Z,47.28
2023-01-07T20:29:13.232Z,50.00
2023-01-07T20:31:16.841Z,48.10
2023-01-07T20:33:19.279Z,49.85
2023-01-07T20:35:22.724Z,50.40
2023-01-07T20:39:30.100Z,47.13
2023-01-07T20:41:32.551Z,46.67
2023-01-07T20:43:35.214Z,45.35
2023-01-07T20:47:40.401Z,43.17
2023-01-07T20:49:42.437Z,42.55
2023-01-07T20:51:44.144Z,43.05
2023-01-07T20:53:49.251Z,40.73
2023-01-07T20:56:00.633Z,44.30
2023-01-07T20:58:02.417Z,41.95
2023-01-07T21:00:04.656Z,43.67
2023-01-07T21:02:06.918Z,41.85
2023-01-07T21:04:09.386Z,43.35
2023-01-07T21:06:12.298Z,43.70
2023-01-07T21:08:14.024Z,42.75
2023-01-07T21:10:17.700Z,43.92
2023-01-07T21:12:19.407Z,42.08
2023-01-07T21:14:21.475Z,42.20
2023-01-07T21:16:24.198Z,42.50
2023-01-07T21:18:26.244Z,43.63
2023-01-07T21:20:27.896Z,43.33
2023-01-07T21:22:30.116Z,42.60
2023-01-07T21:24:32.826Z,43.85
2023-01-07T21:26:34.536Z,44.28
2023-01-07T21:28:36.806Z,43.67
2023-01-07T21:30:38.463Z,43.00
2023-01-07T21:32:40.577Z,42.15
2023-01-07T21:34:42.806Z,42.75
2023-01-07T21:36:44.608Z,43.72
2023-01-07T21:38:47.136Z,43.05
2023-01-07T21:40:49.206Z,42.88
2023-01-07T21:42:50.977Z,43.38
2023-01-07T21:44:52.724Z,42.38
2023-01-07T21:46:54.760Z,42.40
2023-01-07T21:48:56.856Z,41.65
2023-01-07T21:51:03.058Z,44.45
2023-01-07T21:53:04.801Z,43.33
2023-01-07T21:55:06.905Z,42.95
2023-01-07T21:57:08.909Z,46.60
2023-01-07T21:59:10.757Z,41.67
2023-01-07T22:01:13.717Z,43.50
2023-01-07T22:03:15.674Z,45.15
2023-01-07T22:05:17.494Z,44.25
2023-01-07T22:07:19.582Z,42.80
2023-01-07T22:09:21.504Z,45.08
2023-01-07T22:11:23.485Z,44.38
2023-01-07T22:13:25.492Z,44.30
2023-01-07T22:15:27.188Z,43.88
2023-01-07T22:17:29.266Z,42.42
2023-01-07T22:19:31.013Z,44.92
2023-01-07T22:21:33.214Z,46.47
2023-01-07T22:23:37.223Z,44.45
2023-01-07T22:25:39.153Z,45.58
2023-01-07T22:27:41.129Z,45.93
2023-01-07T22:29:44.638Z,45.72
2023-01-07T22:31:49.707Z,45.58
2023-01-07T22:33:51.609Z,46.22
2023-01-07T22:35:53.431Z,45.13
2023-01-07T22:37:56.057Z,43.90
2023-01-07T22:39:59.910Z,45.78
2023-01-07T22:42:06.045Z,46.58
2023-01-07T22:44:14.819Z,45.90
2023-01-07T22:46:19.534Z,44.58
2023-01-07T22:48:24.085Z,46.05
2023-01-07T22:50:26.138Z,44.88
2023-01-07T22:52:28.138Z,44.72
2023-01-07T22:54:31.029Z,44.53
2023-01-07T22:56:33.520Z,45.90
2023-01-07T22:58:35.234Z,44.40
2023-01-07T23:00:40.004Z,45.83
2023-01-07T23:02:42.020Z,43.85
2023-01-07T23:04:43.677Z,43.47
2023-01-07T23:06:45.735Z,44.90
2023-01-07T23:08:47.503Z,42.97
2023-01-07T23:10:49.291Z,42.95
2023-01-07T23:12:51.350Z,44.33
2023-01-07T23:14:53.001Z,44.08
2023-01-07T23:16:55.367Z,43.33
2023-01-07T23:20:59.278Z,41.03
2023-01-07T23:23:00.932Z,42.55
2023-01-07T23:25:03.400Z,42.13
2023-01-07T23:27:05.062Z,42.33
2023-01-07T23:29:07.339Z,42.43
2023-01-07T23:31:10.232Z,41.83
2023-01-07T23:33:11.918Z,41.45
2023-01-07T23:35:14.367Z,42.53
2023-01-07T23:37:16.068Z,43.27
2023-01-07T23:39:18.165Z,42.97
2023-01-07T23:41:19.819Z,43.63
2023-01-07T23:43:21.543Z,42.30
2023-01-07T23:45:23.819Z,43.50
2023-01-07T23:47:25.605Z,44.47
2023-01-07T23:49:27.781Z,43.37
2023-01-07T23:51:29.472Z,42.90
2023-01-07T23:53:31.161Z,43.33
2023-01-07T23:55:33.487Z,42.58
2023-01-07T23:57:35.147Z,42.63
2023-01-07T23:59:37.698Z,44.13
